sensor_id;sensor_type;location;lat;lon;timestamp;temperature;humidity
212;DHT22;16228;48.800;9.002;2023-05-10T00:00:03;14.30;96.90
212;DHT22;16228;48.800;9.002;2023-05-10T00:02:30;14.20;96.90
212;DHT22;16228;48.800;9.002;2023-05-10T00:04:57;14.20;96.90
212;DHT22;16228;48.800;9.002;2023-05-10T00:07:25;14.20;96.90
212;DHT22;16228;48.800;9.002;2023-05-10T00:09:53;14.20;96.90
212;DHT22;16228;48.800;9.002;2023-05-10T00:12:21;14.00;96.90
212;DHT22;16228;48.800;9.002;2023-05-10T00:14:48;13.90;96.90
212;DHT22;16228;48.800;9.002;2023-05-10T00:17:25;13.90;96.90
212;DHT22;16228;48.800;9.002;2023-05-10T00:19:52;13.90;96.90
212;DHT22;16228;48.800;9.002;2023-05-10T00:22:20;13.80;96.90
212;DHT22;16228;48.800;9.002;2023-05-10T00:24:47;13.80;96.90
212;DHT22;16228;48.800;9.002;2023-05-10T00:27:15;13.80;96.90
212;DHT22;16228;48.800;9.002;2023-05-10T00:29:43;13.70;96.90
212;DHT22;16228;48.800;9.002;2023-05-10T00:32:10;13.70;96.90
212;DHT22;16228;48.800;9.002;2023-05-10T00:34:37;13.70;96.90
212;DHT22;16228;48.800;9.002;2023-05-10T00:37:04;13.70;96.90
212;DHT22;16228;48.800;9.002;2023-05-10T00:39:32;13.70;96.90
212;DHT22;16228;48.800;9.002;2023-05-10T00:41:59;13.70;96.90
212;DHT22;16228;48.800;9.002;2023-05-10T00:44:27;13.60;96.90
212;DHT22;16228;48.800;9.002;2023-05-10T00:46:55;13.60;96.90
212;DHT22;16228;48.800;9.002;2023-05-10T00:49:22;13.60;96.90
212;DHT22;16228;48.800;9.002;2023-05-10T00:51:50;13.60;96.90
212;DHT22;16228;48.800;9.002;2023-05-10T00:54:17;13.50;96.90
212;DHT22;16228;48.800;9.002;2023-05-10T00:56:44;13.50;96.90
212;DHT22;16228;48.800;9.002;2023-05-10T00:59:24;13.50;96.90
212;DHT22;16228;48.800;9.002;2023-05-10T01:01:53;13.50;96.90
212;DHT22;16228;48.800;9.002;2023-05-10T01:04:21;13.50;96.90
212;DHT22;16228;48.800;9.002;2023-05-10T01:06:51;13.50;96.90
212;DHT22;16228;48.800;9.002;2023-05-10T01:09:20;13.50;96.90
212;DHT22;16228;48.800;9.002;2023-05-10T01:11:47;13.50;96.90
212;DHT22;16228;48.800;9.002;2023-05-10T01:14:18;13.50;96.90
212;DHT22;16228;48.800;9.002;2023-05-10T01:16:47;13.50;96.90
212;DHT22;16228;48.800;9.002;2023-05-10T01:19:22;13.50;96.90
212;DHT22;16228;48.800;9.002;2023-05-10T01:21:56;13.50;96.90
212;DHT22;16228;48.800;9.002;2023-05-10T01:24:53;13.50;96.90
212;DHT22;16228;48.800;9.002;2023-05-10T01:33:47;13.40;96.90
212;DHT22;16228;48.800;9.002;2023-05-10T01:36:22;13.40;96.90
212;DHT22;16228;48.800;9.002;2023-05-10T01:38:55;13.40;96.90
212;DHT22;16228;48.800;9.002;2023-05-10T01:41:28;13.30;96.90
212;DHT22;16228;48.800;9.002;2023-05-10T01:44:01;13.30;96.90
212;DHT22;16228;48.800;9.002;2023-05-10T01:46:33;13.30;96.90
212;DHT22;16228;48.800;9.002;2023-05-10T01:49:07;13.30;96.90
212;DHT22;16228;48.800;9.002;2023-05-10T01:51:38;13.30;96.90
212;DHT22;16228;48.800;9.002;2023-05-10T01:54:08;13.30;96.90
212;DHT22;16228;48.800;9.002;2023-05-10T01:56:38;13.20;96.90
212;DHT22;16228;48.800;9.002;2023-05-10T01:59:15;13.20;96.90
212;DHT22;16228;48.800;9.002;2023-05-10T02:01:45;13.20;96.90
212;DHT22;16228;48.800;9.002;2023-05-10T02:04:16;13.20;96.90
212;DHT22;16228;48.800;9.002;2023-05-10T02:06:45;13.20;96.90
212;DHT22;16228;48.800;9.002;2023-05-10T02:09:15;13.20;96.90
212;DHT22;16228;48.800;9.002;2023-05-10T02:11:43;13.10;96.90
212;DHT22;16228;48.800;9.002;2023-05-10T02:14:11;13.10;96.90
212;DHT22;16228;48.800;9.002;2023-05-10T02:16:39;13.10;96.90
212;DHT22;16228;48.800;9.002;2023-05-10T02:19:07;13.10;96.90
212;DHT22;16228;48.800;9.002;2023-05-10T02:21:38;13.10;96.90
212;DHT22;16228;48.800;9.002;2023-05-10T02:24:07;13.10;96.90
212;DHT22;16228;48.800;9.002;2023-05-10T02:26:36;13.00;96.90
212;DHT22;16228;48.800;9.002;2023-05-10T02:29:05;13.00;96.90
212;DHT22;16228;48.800;9.002;2023-05-10T02:31:33;13.00;96.90
212;DHT22;16228;48.800;9.002;2023-05-10T02:34:02;13.00;96.90
212;DHT22;16228;48.800;9.002;2023-05-10T02:36:31;13.00;96.90
212;DHT22;16228;48.800;9.002;2023-05-10T02:39:01;12.90;96.90
212;DHT22;16228;48.800;9.002;2023-05-10T02:41:49;12.80;96.90
212;DHT22;16228;48.800;9.002;2023-05-10T02:44:36;12.80;96.90
212;DHT22;16228;48.800;9.002;2023-05-10T02:47:22;12.90;96.90
212;DHT22;16228;48.800;9.002;2023-05-10T02:50:00;12.90;96.90
212;DHT22;16228;48.800;9.002;2023-05-10T02:52:47;12.90;96.90
212;DHT22;16228;48.800;9.002;2023-05-10T02:55:39;12.90;96.90
212;DHT22;16228;48.800;9.002;2023-05-10T02:58:25;12.90;96.90
212;DHT22;16228;48.800;9.002;2023-05-10T03:01:11;12.90;96.90
212;DHT22;16228;48.800;9.002;2023-05-10T03:03:56;12.90;96.90
212;DHT22;16228;48.800;9.002;2023-05-10T03:06:43;13.00;96.90
212;DHT22;16228;48.800;9.002;2023-05-10T03:09:29;13.00;96.90
212;DHT22;16228;48.800;9.002;2023-05-10T03:12:22;13.10;96.90
212;DHT22;16228;48.800;9.002;2023-05-10T03:15:13;13.00;96.90
212;DHT22;16228;48.800;9.002;2023-05-10T03:18:12;13.10;96.90
212;DHT22;16228;48.800;9.002;2023-05-10T03:21:03;13.00;96.90
212;DHT22;16228;48.800;9.002;2023-05-10T03:23:53;13.10;96.90
212;DHT22;16228;48.800;9.002;2023-05-10T03:26:43;13.00;96.90
212;DHT22;16228;48.800;9.002;2023-05-10T03:29:36;13.10;96.90
212;DHT22;16228;48.800;9.002;2023-05-10T03:32:04;13.10;96.90
212;DHT22;16228;48.800;9.002;2023-05-10T03:34:31;13.10;96.90
212;DHT22;16228;48.800;9.002;2023-05-10T03:36:58;13.10;96.90
212;DHT22;16228;48.800;9.002;2023-05-10T03:39:26;13.10;96.90
212;DHT22;16228;48.800;9.002;2023-05-10T03:41:53;13.20;96.90
212;DHT22;16228;48.800;9.002;2023-05-10T03:44:20;13.20;96.90
212;DHT22;16228;48.800;9.002;2023-05-10T03:46:49;13.20;96.90
212;DHT22;16228;48.800;9.002;2023-05-10T03:49:16;13.10;96.90
212;DHT22;16228;48.800;9.002;2023-05-10T03:51:43;13.00;96.90
212;DHT22;16228;48.800;9.002;2023-05-10T03:54:10;12.90;96.90
212;DHT22;16228;48.800;9.002;2023-05-10T03:56:37;12.90;96.90
212;DHT22;16228;48.800;9.002;2023-05-10T03:59:05;12.80;96.90
212;DHT22;16228;48.800;9.002;2023-05-10T04:01:33;12.90;96.90
212;DHT22;16228;48.800;9.002;2023-05-10T04:04:01;12.90;96.90
212;DHT22;16228;48.800;9.002;2023-05-10T04:06:29;12.80;96.90
212;DHT22;16228;48.800;9.002;2023-05-10T04:08:56;12.90;96.90
212;DHT22;16228;48.800;9.002;2023-05-10T04:11:25;12.90;96.90
212;DHT22;16228;48.800;9.002;2023-05-10T04:13:53;12.90;96.90
212;DHT22;16228;48.800;9.002;2023-05-10T04:16:20;12.90;96.90
212;DHT22;16228;48.800;9.002;2023-05-10T04:18:47;12.90;96.90
212;DHT22;16228;48.800;9.002;2023-05-10T04:21:16;13.00;96.90
212;DHT22;16228;48.800;9.002;2023-05-10T04:23:43;13.00;96.90
212;DHT22;16228;48.800;9.002;2023-05-10T04:26:10;13.10;96.90
212;DHT22;16228;48.800;9.002;2023-05-10T04:28:37;13.10;96.90
212;DHT22;16228;48.800;9.002;2023-05-10T04:31:05;13.20;96.90
212;DHT22;16228;48.800;9.002;2023-05-10T04:33:33;13.20;96.90
212;DHT22;16228;48.800;9.002;2023-05-10T04:36:01;13.20;96.90
212;DHT22;16228;48.800;9.002;2023-05-10T04:38:30;13.30;96.90
212;DHT22;16228;48.800;9.002;2023-05-10T04:41:04;13.30;96.90
212;DHT22;16228;48.800;9.002;2023-05-10T04:43:31;13.30;96.90
212;DHT22;16228;48.800;9.002;2023-05-10T04:45:59;13.30;96.90
212;DHT22;16228;48.800;9.002;2023-05-10T04:48:26;13.30;96.90
212;DHT22;16228;48.800;9.002;2023-05-10T04:50:53;13.30;96.90
212;DHT22;16228;48.800;9.002;2023-05-10T04:53:20;13.30;96.90
212;DHT22;16228;48.800;9.002;2023-05-10T04:55:49;13.30;96.90
212;DHT22;16228;48.800;9.002;2023-05-10T04:58:16;13.40;96.90
212;DHT22;16228;48.800;9.002;2023-05-10T05:00:43;13.50;96.90
212;DHT22;16228;48.800;9.002;2023-05-10T05:03:10;13.50;96.90
212;DHT22;16228;48.800;9.002;2023-05-10T05:05:38;13.40;96.90
212;DHT22;16228;48.800;9.002;2023-05-10T05:08:05;13.50;96.90
212;DHT22;16228;48.800;9.002;2023-05-10T05:10:32;13.60;96.90
212;DHT22;16228;48.800;9.002;2023-05-10T05:13:01;13.70;96.90
212;DHT22;16228;48.800;9.002;2023-05-10T05:15:28;13.70;96.90
212;DHT22;16228;48.800;9.002;2023-05-10T05:17:56;13.80;96.90
212;DHT22;16228;48.800;9.002;2023-05-10T05:20:23;13.80;96.90
212;DHT22;16228;48.800;9.002;2023-05-10T05:22:50;13.90;96.90
212;DHT22;16228;48.800;9.002;2023-05-10T05:25:17;14.00;96.90
212;DHT22;16228;48.800;9.002;2023-05-10T05:27:45;14.00;96.90
212;DHT22;16228;48.800;9.002;2023-05-10T05:30:13;14.10;96.90
212;DHT22;16228;48.800;9.002;2023-05-10T05:32:40;14.10;96.90
212;DHT22;16228;48.800;9.002;2023-05-10T05:35:08;14.20;96.90
212;DHT22;16228;48.800;9.002;2023-05-10T05:37:35;14.20;96.90
212;DHT22;16228;48.800;9.002;2023-05-10T05:40:03;14.20;96.90
212;DHT22;16228;48.800;9.002;2023-05-10T05:42:31;14.30;96.90
212;DHT22;16228;48.800;9.002;2023-05-10T05:44:58;14.30;96.90
212;DHT22;16228;48.800;9.002;2023-05-10T05:47:27;14.40;96.90
212;DHT22;16228;48.800;9.002;2023-05-10T05:49:54;14.40;96.90
212;DHT22;16228;48.800;9.002;2023-05-10T05:52:21;14.50;96.90
212;DHT22;16228;48.800;9.002;2023-05-10T05:54:48;14.50;96.90
212;DHT22;16228;48.800;9.002;2023-05-10T05:57:15;14.60;96.90
212;DHT22;16228;48.800;9.002;2023-05-10T05:59:42;14.60;96.90
212;DHT22;16228;48.800;9.002;2023-05-10T06:02:10;14.70;96.90
212;DHT22;16228;48.800;9.002;2023-05-10T06:04:39;14.80;96.90
212;DHT22;16228;48.800;9.002;2023-05-10T06:07:06;14.80;96.90
212;DHT22;16228;48.800;9.002;2023-05-10T06:09:33;14.80;96.90
212;DHT22;16228;48.800;9.002;2023-05-10T06:12:00;14.80;96.90
212;DHT22;16228;48.800;9.002;2023-05-10T06:14:27;14.80;96.90
212;DHT22;16228;48.800;9.002;2023-05-10T06:16:55;14.80;96.90
212;DHT22;16228;48.800;9.002;2023-05-10T06:19:22;14.70;96.90
212;DHT22;16228;48.800;9.002;2023-05-10T06:21:51;14.60;96.90
212;DHT22;16228;48.800;9.002;2023-05-10T06:24:18;14.60;96.90
212;DHT22;16228;48.800;9.002;2023-05-10T06:26:45;14.70;96.90
212;DHT22;16228;48.800;9.002;2023-05-10T06:29:12;14.70;96.90
212;DHT22;16228;48.800;9.002;2023-05-10T06:31:41;14.70;96.90
212;DHT22;16228;48.800;9.002;2023-05-10T06:34:08;14.70;96.90
212;DHT22;16228;48.800;9.002;2023-05-10T06:36:35;14.80;96.90
212;DHT22;16228;48.800;9.002;2023-05-10T06:39:04;14.80;96.90
212;DHT22;16228;48.800;9.002;2023-05-10T06:41:31;14.80;96.90
212;DHT22;16228;48.800;9.002;2023-05-10T06:43:58;14.70;96.90
212;DHT22;16228;48.800;9.002;2023-05-10T06:46:25;14.70;96.90
212;DHT22;16228;48.800;9.002;2023-05-10T06:48:53;14.70;96.90
212;DHT22;16228;48.800;9.002;2023-05-10T06:51:20;14.80;96.90
212;DHT22;16228;48.800;9.002;2023-05-10T06:53:49;15.00;96.90
212;DHT22;16228;48.800;9.002;2023-05-10T06:56:17;15.20;96.90
212;DHT22;16228;48.800;9.002;2023-05-10T06:58:49;15.30;96.90
212;DHT22;16228;48.800;9.002;2023-05-10T07:01:17;15.40;96.90
212;DHT22;16228;48.800;9.002;2023-05-10T07:03:44;15.50;96.90
212;DHT22;16228;48.800;9.002;2023-05-10T07:06:11;15.60;96.90
212;DHT22;16228;48.800;9.002;2023-05-10T07:08:38;15.70;96.90
212;DHT22;16228;48.800;9.002;2023-05-10T07:11:06;15.70;96.90
212;DHT22;16228;48.800;9.002;2023-05-10T07:13:35;15.80;96.90
212;DHT22;16228;48.800;9.002;2023-05-10T07:16:05;16.00;96.90
212;DHT22;16228;48.800;9.002;2023-05-10T07:18:33;16.20;96.90
212;DHT22;16228;48.800;9.002;2023-05-10T07:21:00;16.40;96.90
212;DHT22;16228;48.800;9.002;2023-05-10T07:23:28;16.50;96.90
212;DHT22;16228;48.800;9.002;2023-05-10T07:25:56;16.60;96.90
212;DHT22;16228;48.800;9.002;2023-05-10T07:28:23;16.50;96.90
212;DHT22;16228;48.800;9.002;2023-05-10T07:30:53;16.50;96.90
212;DHT22;16228;48.800;9.002;2023-05-10T07:33:20;16.70;96.90
212;DHT22;16228;48.800;9.002;2023-05-10T07:35:47;16.90;96.90
212;DHT22;16228;48.800;9.002;2023-05-10T07:38:15;16.90;96.90
212;DHT22;16228;48.800;9.002;2023-05-10T07:40:50;17.00;96.90
212;DHT22;16228;48.800;9.002;2023-05-10T07:43:19;17.00;96.90
212;DHT22;16228;48.800;9.002;2023-05-10T07:45:47;17.10;96.90
212;DHT22;16228;48.800;9.002;2023-05-10T07:48:18;17.20;96.90
212;DHT22;16228;48.800;9.002;2023-05-10T07:50:45;17.40;96.90
212;DHT22;16228;48.800;9.002;2023-05-10T07:53:13;17.40;96.90
212;DHT22;16228;48.800;9.002;2023-05-10T07:55:40;17.40;96.90
212;DHT22;16228;48.800;9.002;2023-05-10T07:58:07;17.20;96.90
212;DHT22;16228;48.800;9.002;2023-05-10T08:00:34;17.30;96.90
212;DHT22;16228;48.800;9.002;2023-05-10T08:03:05;17.30;96.90
212;DHT22;16228;48.800;9.002;2023-05-10T08:05:33;17.30;96.90
212;DHT22;16228;48.800;9.002;2023-05-10T08:08:01;17.20;96.90
212;DHT22;16228;48.800;9.002;2023-05-10T08:10:28;17.20;96.90
212;DHT22;16228;48.800;9.002;2023-05-10T08:12:55;17.10;96.90
212;DHT22;16228;48.800;9.002;2023-05-10T08:15:24;17.10;96.90
212;DHT22;16228;48.800;9.002;2023-05-10T08:17:52;17.00;96.90
212;DHT22;16228;48.800;9.002;2023-05-10T08:20:19;17.10;96.90
212;DHT22;16228;48.800;9.002;2023-05-10T08:22:48;17.30;96.90
212;DHT22;16228;48.800;9.002;2023-05-10T08:25:15;17.30;96.90
212;DHT22;16228;48.800;9.002;2023-05-10T08:27:43;17.40;96.90
212;DHT22;16228;48.800;9.002;2023-05-10T08:30:10;17.70;96.90
212;DHT22;16228;48.800;9.002;2023-05-10T08:32:38;18.00;96.90
212;DHT22;16228;48.800;9.002;2023-05-10T08:35:06;18.30;96.90
212;DHT22;16228;48.800;9.002;2023-05-10T08:37:33;18.50;96.90
212;DHT22;16228;48.800;9.002;2023-05-10T08:40:02;18.60;96.90
212;DHT22;16228;48.800;9.002;2023-05-10T08:42:30;18.40;96.90
212;DHT22;16228;48.800;9.002;2023-05-10T08:45:03;18.60;96.90
212;DHT22;16228;48.800;9.002;2023-05-10T08:47:30;19.00;96.90
212;DHT22;16228;48.800;9.002;2023-05-10T08:49:58;19.20;96.90
212;DHT22;16228;48.800;9.002;2023-05-10T08:52:30;19.50;96.90
212;DHT22;16228;48.800;9.002;2023-05-10T08:55:00;19.70;96.90
212;DHT22;16228;48.800;9.002;2023-05-10T08:57:29;19.90;96.90
212;DHT22;16228;48.800;9.002;2023-05-10T08:59:56;19.70;96.90
212;DHT22;16228;48.800;9.002;2023-05-10T09:02:25;19.90;96.90
212;DHT22;16228;48.800;9.002;2023-05-10T09:04:52;20.00;96.90
212;DHT22;16228;48.800;9.002;2023-05-10T09:07:20;20.00;96.90
212;DHT22;16228;48.800;9.002;2023-05-10T09:09:48;19.60;96.90
212;DHT22;16228;48.800;9.002;2023-05-10T09:12:17;19.10;96.90
212;DHT22;16228;48.800;9.002;2023-05-10T09:14:45;18.80;96.90
212;DHT22;16228;48.800;9.002;2023-05-10T09:17:13;18.90;96.90
212;DHT22;16228;48.800;9.002;2023-05-10T09:19:40;19.00;96.90
212;DHT22;16228;48.800;9.002;2023-05-10T09:22:08;19.00;96.90
212;DHT22;16228;48.800;9.002;2023-05-10T09:24:37;19.10;96.90
212;DHT22;16228;48.800;9.002;2023-05-10T09:27:08;19.20;96.90
212;DHT22;16228;48.800;9.002;2023-05-10T09:29:43;19.30;96.90
212;DHT22;16228;48.800;9.002;2023-05-10T09:32:10;19.20;96.90
212;DHT22;16228;48.800;9.002;2023-05-10T09:34:37;19.20;96.90
212;DHT22;16228;48.800;9.002;2023-05-10T09:37:06;18.90;96.90
212;DHT22;16228;48.800;9.002;2023-05-10T09:39:34;18.80;96.90
212;DHT22;16228;48.800;9.002;2023-05-10T09:42:04;18.70;96.90
212;DHT22;16228;48.800;9.002;2023-05-10T09:44:34;18.40;96.90
212;DHT22;16228;48.800;9.002;2023-05-10T09:47:03;18.30;96.90
212;DHT22;16228;48.800;9.002;2023-05-10T09:49:31;18.00;96.90
212;DHT22;16228;48.800;9.002;2023-05-10T09:52:03;17.80;96.90
212;DHT22;16228;48.800;9.002;2023-05-10T09:54:31;17.90;96.90
212;DHT22;16228;48.800;9.002;2023-05-10T09:56:59;18.10;96.90
212;DHT22;16228;48.800;9.002;2023-05-10T09:59:27;18.50;96.90
212;DHT22;16228;48.800;9.002;2023-05-10T10:01:56;18.80;96.90
212;DHT22;16228;48.800;9.002;2023-05-10T10:04:26;19.10;96.90
212;DHT22;16228;48.800;9.002;2023-05-10T10:07:01;19.40;96.90
212;DHT22;16228;48.800;9.002;2023-05-10T10:09:28;19.70;96.90
212;DHT22;16228;48.800;9.002;2023-05-10T10:11:56;19.80;96.90
212;DHT22;16228;48.800;9.002;2023-05-10T10:14:23;20.20;96.90
212;DHT22;16228;48.800;9.002;2023-05-10T10:16:50;20.70;96.90
212;DHT22;16228;48.800;9.002;2023-05-10T10:19:18;21.00;96.90
212;DHT22;16228;48.800;9.002;2023-05-10T10:21:47;21.30;96.90
212;DHT22;16228;48.800;9.002;2023-05-10T10:24:14;21.50;96.90
212;DHT22;16228;48.800;9.002;2023-05-10T10:26:42;21.70;96.90
212;DHT22;16228;48.800;9.002;2023-05-10T10:29:19;22.10;96.90
212;DHT22;16228;48.800;9.002;2023-05-10T10:31:54;22.10;94.20
212;DHT22;16228;48.800;9.002;2023-05-10T10:34:26;21.80;94.30
212;DHT22;16228;48.800;9.002;2023-05-10T10:36:56;21.30;93.70
212;DHT22;16228;48.800;9.002;2023-05-10T10:39:24;20.80;96.40
212;DHT22;16228;48.800;9.002;2023-05-10T10:41:53;20.10;96.90
212;DHT22;16228;48.800;9.002;2023-05-10T10:44:34;19.10;96.70
212;DHT22;16228;48.800;9.002;2023-05-10T10:47:04;18.40;96.90
212;DHT22;16228;48.800;9.002;2023-05-10T10:49:38;17.80;96.90
212;DHT22;16228;48.800;9.002;2023-05-10T10:52:27;17.40;96.90
212;DHT22;16228;48.800;9.002;2023-05-10T10:55:00;17.60;96.90
212;DHT22;16228;48.800;9.002;2023-05-10T10:57:30;17.70;96.90
212;DHT22;16228;48.800;9.002;2023-05-10T11:00:23;17.90;96.90
212;DHT22;16228;48.800;9.002;2023-05-10T11:02:52;18.00;96.90
212;DHT22;16228;48.800;9.002;2023-05-10T11:05:40;18.10;96.90
212;DHT22;16228;48.800;9.002;2023-05-10T11:08:15;18.30;96.90
212;DHT22;16228;48.800;9.002;2023-05-10T11:10:54;18.60;96.90
212;DHT22;16228;48.800;9.002;2023-05-10T11:13:30;18.90;96.90
212;DHT22;16228;48.800;9.002;2023-05-10T11:15:58;19.20;96.90
212;DHT22;16228;48.800;9.002;2023-05-10T11:18:29;19.20;96.90
212;DHT22;16228;48.800;9.002;2023-05-10T11:20:59;19.10;96.90
212;DHT22;16228;48.800;9.002;2023-05-10T11:23:47;19.10;96.90
212;DHT22;16228;48.800;9.002;2023-05-10T11:26:15;18.80;96.90
212;DHT22;16228;48.800;9.002;2023-05-10T11:28:42;18.80;96.90
212;DHT22;16228;48.800;9.002;2023-05-10T11:31:10;18.50;96.90
212;DHT22;16228;48.800;9.002;2023-05-10T11:33:42;18.30;96.90
212;DHT22;16228;48.800;9.002;2023-05-10T11:36:11;18.10;96.90
212;DHT22;16228;48.800;9.002;2023-05-10T11:38:40;17.90;96.90
212;DHT22;16228;48.800;9.002;2023-05-10T11:41:08;17.80;96.90
212;DHT22;16228;48.800;9.002;2023-05-10T11:43:39;17.80;96.90
212;DHT22;16228;48.800;9.002;2023-05-10T11:46:07;17.30;96.90
212;DHT22;16228;48.800;9.002;2023-05-10T11:48:34;17.30;96.90
212;DHT22;16228;48.800;9.002;2023-05-10T11:51:02;17.30;96.90
212;DHT22;16228;48.800;9.002;2023-05-10T11:53:30;17.30;96.90
212;DHT22;16228;48.800;9.002;2023-05-10T11:56:05;17.60;96.90
212;DHT22;16228;48.800;9.002;2023-05-10T11:58:32;17.80;96.90
212;DHT22;16228;48.800;9.002;2023-05-10T12:01:00;18.10;96.90
212;DHT22;16228;48.800;9.002;2023-05-10T12:03:28;18.40;96.90
212;DHT22;16228;48.800;9.002;2023-05-10T12:05:57;18.70;96.90
212;DHT22;16228;48.800;9.002;2023-05-10T12:08:25;18.70;96.90
212;DHT22;16228;48.800;9.002;2023-05-10T12:11:02;18.80;96.90
212;DHT22;16228;48.800;9.002;2023-05-10T12:13:31;19.20;96.90
212;DHT22;16228;48.800;9.002;2023-05-10T12:15:59;19.40;95.20
212;DHT22;16228;48.800;9.002;2023-05-10T12:18:26;19.20;96.60
212;DHT22;16228;48.800;9.002;2023-05-10T12:20:53;19.00;96.60
212;DHT22;16228;48.800;9.002;2023-05-10T12:23:21;18.80;96.60
212;DHT22;16228;48.800;9.002;2023-05-10T12:25:48;18.90;96.90
212;DHT22;16228;48.800;9.002;2023-05-10T12:28:19;19.00;96.90
212;DHT22;16228;48.800;9.002;2023-05-10T12:30:48;19.20;96.70
212;DHT22;16228;48.800;9.002;2023-05-10T12:33:15;19.50;96.60
212;DHT22;16228;48.800;9.002;2023-05-10T12:35:45;19.90;94.10
212;DHT22;16228;48.800;9.002;2023-05-10T12:38:30;20.20;94.80
212;DHT22;16228;48.800;9.002;2023-05-10T12:41:00;20.40;93.30
212;DHT22;16228;48.800;9.002;2023-05-10T12:43:32;20.20;93.90
212;DHT22;16228;48.800;9.002;2023-05-10T12:46:06;19.80;95.70
212;DHT22;16228;48.800;9.002;2023-05-10T12:48:34;19.40;96.80
212;DHT22;16228;48.800;9.002;2023-05-10T12:51:02;19.10;96.90
212;DHT22;16228;48.800;9.002;2023-05-10T12:53:30;18.70;96.90
212;DHT22;16228;48.800;9.002;2023-05-10T12:55:58;18.50;96.90
212;DHT22;16228;48.800;9.002;2023-05-10T12:58:27;18.70;96.90
212;DHT22;16228;48.800;9.002;2023-05-10T13:00:54;19.00;96.90
212;DHT22;16228;48.800;9.002;2023-05-10T13:03:24;19.20;96.90
212;DHT22;16228;48.800;9.002;2023-05-10T13:05:51;19.40;96.90
212;DHT22;16228;48.800;9.002;2023-05-10T13:08:18;19.70;95.20
212;DHT22;16228;48.800;9.002;2023-05-10T13:10:46;19.80;94.50
212;DHT22;16228;48.800;9.002;2023-05-10T13:13:13;20.00;95.00
212;DHT22;16228;48.800;9.002;2023-05-10T13:15:40;20.00;94.60
212;DHT22;16228;48.800;9.002;2023-05-10T13:18:08;19.80;93.10
212;DHT22;16228;48.800;9.002;2023-05-10T13:20:37;19.80;96.90
212;DHT22;16228;48.800;9.002;2023-05-10T13:23:05;19.90;94.00
212;DHT22;16228;48.800;9.002;2023-05-10T13:25:33;20.00;94.30
212;DHT22;16228;48.800;9.002;2023-05-10T13:28:01;20.00;94.00
212;DHT22;16228;48.800;9.002;2023-05-10T13:30:28;19.90;92.60
212;DHT22;16228;48.800;9.002;2023-05-10T13:32:56;19.80;91.50
212;DHT22;16228;48.800;9.002;2023-05-10T13:35:24;19.80;94.40
212;DHT22;16228;48.800;9.002;2023-05-10T13:38:10;19.40;91.80
212;DHT22;16228;48.800;9.002;2023-05-10T13:40:37;19.20;94.50
212;DHT22;16228;48.800;9.002;2023-05-10T13:43:06;19.10;90.40
212;DHT22;16228;48.800;9.002;2023-05-10T13:45:34;18.70;89.50
212;DHT22;16228;48.800;9.002;2023-05-10T13:48:02;18.70;90.00
212;DHT22;16228;48.800;9.002;2023-05-10T13:50:30;18.90;93.50
212;DHT22;16228;48.800;9.002;2023-05-10T13:52:57;19.10;91.40
212;DHT22;16228;48.800;9.002;2023-05-10T13:55:27;19.30;92.00
212;DHT22;16228;48.800;9.002;2023-05-10T13:57:55;19.30;91.70
212;DHT22;16228;48.800;9.002;2023-05-10T14:00:23;19.40;91.10
212;DHT22;16228;48.800;9.002;2023-05-10T14:02:51;19.50;89.60
212;DHT22;16228;48.800;9.002;2023-05-10T14:05:19;19.50;93.20
212;DHT22;16228;48.800;9.002;2023-05-10T14:07:47;19.60;91.50
212;DHT22;16228;48.800;9.002;2023-05-10T14:10:15;19.60;93.00
212;DHT22;16228;48.800;9.002;2023-05-10T14:12:44;19.60;91.20
212;DHT22;16228;48.800;9.002;2023-05-10T14:15:11;19.60;93.00
212;DHT22;16228;48.800;9.002;2023-05-10T14:17:39;19.40;92.40
212;DHT22;16228;48.800;9.002;2023-05-10T14:20:26;19.50;92.80
212;DHT22;16228;48.800;9.002;2023-05-10T14:22:59;19.60;94.00
212;DHT22;16228;48.800;9.002;2023-05-10T14:25:46;19.80;93.70
212;DHT22;16228;48.800;9.002;2023-05-10T14:28:18;19.90;94.60
212;DHT22;16228;48.800;9.002;2023-05-10T14:30:49;19.80;92.30
212;DHT22;16228;48.800;9.002;2023-05-10T14:33:18;19.70;93.90
212;DHT22;16228;48.800;9.002;2023-05-10T14:35:49;19.70;93.40
212;DHT22;16228;48.800;9.002;2023-05-10T14:38:18;19.70;93.90
212;DHT22;16228;48.800;9.002;2023-05-10T14:40:47;19.70;95.10
212;DHT22;16228;48.800;9.002;2023-05-10T14:43:14;19.60;93.00
212;DHT22;16228;48.800;9.002;2023-05-10T14:45:43;19.50;92.60
212;DHT22;16228;48.800;9.002;2023-05-10T14:48:12;19.20;92.40
212;DHT22;16228;48.800;9.002;2023-05-10T14:50:45;19.10;93.80
212;DHT22;16228;48.800;9.002;2023-05-10T14:53:14;19.10;95.80
212;DHT22;16228;48.800;9.002;2023-05-10T14:55:42;19.20;95.60
212;DHT22;16228;48.800;9.002;2023-05-10T14:58:11;19.10;96.00
212;DHT22;16228;48.800;9.002;2023-05-10T15:00:38;19.30;94.50
212;DHT22;16228;48.800;9.002;2023-05-10T15:03:08;19.30;92.80
212;DHT22;16228;48.800;9.002;2023-05-10T15:05:35;19.20;93.10
212;DHT22;16228;48.800;9.002;2023-05-10T15:08:05;19.30;94.70
212;DHT22;16228;48.800;9.002;2023-05-10T15:10:33;19.40;94.00
212;DHT22;16228;48.800;9.002;2023-05-10T15:13:01;19.40;94.30
212;DHT22;16228;48.800;9.002;2023-05-10T15:15:28;19.30;93.30
212;DHT22;16228;48.800;9.002;2023-05-10T15:17:56;19.30;91.40
212;DHT22;16228;48.800;9.002;2023-05-10T15:20:25;19.30;93.60
212;DHT22;16228;48.800;9.002;2023-05-10T15:22:52;19.40;94.20
212;DHT22;16228;48.800;9.002;2023-05-10T15:25:19;19.30;93.40
212;DHT22;16228;48.800;9.002;2023-05-10T15:27:46;19.20;94.10
212;DHT22;16228;48.800;9.002;2023-05-10T15:30:14;19.20;95.80
212;DHT22;16228;48.800;9.002;2023-05-10T15:32:41;19.00;93.90
212;DHT22;16228;48.800;9.002;2023-05-10T15:35:08;18.80;95.00
212;DHT22;16228;48.800;9.002;2023-05-10T15:37:37;18.70;93.40
212;DHT22;16228;48.800;9.002;2023-05-10T15:40:06;18.70;94.60
212;DHT22;16228;48.800;9.002;2023-05-10T15:42:36;18.80;93.50
212;DHT22;16228;48.800;9.002;2023-05-10T15:45:04;18.80;93.80
212;DHT22;16228;48.800;9.002;2023-05-10T15:47:31;18.80;93.90
212;DHT22;16228;48.800;9.002;2023-05-10T15:49:59;18.70;93.50
212;DHT22;16228;48.800;9.002;2023-05-10T15:52:26;18.70;93.40
212;DHT22;16228;48.800;9.002;2023-05-10T15:54:54;18.70;94.80
212;DHT22;16228;48.800;9.002;2023-05-10T15:57:21;18.70;92.60
212;DHT22;16228;48.800;9.002;2023-05-10T15:59:49;18.70;92.00
212;DHT22;16228;48.800;9.002;2023-05-10T16:02:16;18.60;93.50
212;DHT22;16228;48.800;9.002;2023-05-10T16:04:44;18.70;94.70
212;DHT22;16228;48.800;9.002;2023-05-10T16:07:11;18.80;94.10
212;DHT22;16228;48.800;9.002;2023-05-10T16:09:38;18.80;94.70
212;DHT22;16228;48.800;9.002;2023-05-10T16:12:07;18.80;96.00
212;DHT22;16228;48.800;9.002;2023-05-10T16:14:34;18.70;95.20
212;DHT22;16228;48.800;9.002;2023-05-10T16:17:01;18.70;96.40
212;DHT22;16228;48.800;9.002;2023-05-10T16:19:29;18.70;95.50
212;DHT22;16228;48.800;9.002;2023-05-10T16:21:56;18.60;93.50
212;DHT22;16228;48.800;9.002;2023-05-10T16:24:24;18.50;94.30